ilmateenistus.ee keskkonnaagentuur.ee
EETN Tallinna lennuväli
FTEO31 EETN 252300
TAF EETN 252330Z 2600/2624 26006KT 9999 SCT030 TEMPO 2600/2606 2000
    BR BKN003 BECMG 2606/2608 BKN010 SCT020CB BECMG 2612/2614 SCT020CB
    SCT025=

METAR EETN 260020Z 24005KT 1800 0500W R26/P2000N PRFG BR BKN001 12/11 Q1006 =
Tallinna lennuväli
EEKA Kärdla lennuväli
METAR EEKA 252350Z NIL=
Kärdla lennuväli
EEKE Kuressaare lennuväli
METAR EEKE 252350Z AUTO 33010KT 290V350 9999NDV OVC004 10/09 Q1009=
Kuressaare lennuväli
EEPU Pärnu lennuväli
METAR EEPU 252350Z NIL=
Pärnu lennuväli
EETU Tartu lennuväli
METAR EETU 260020Z AUTO 25002KT 9999 BKN064/// 15/12 Q1006=
Tartu lennuväli